Bei Facebook empfehlenBei Twitter postenGoogle plusPinterest

Das Wetter im Erzgebirge am 10.10.2016

Wetter und Klima am 10.10.2016 Holzhau im Erzgebirge (630m ü.NN)
Letzte gemessene Temperatur und Uhrzeit der Messung23:45:00 Uhr3.40 °C
Temperatur (Maximum / Höchstwert) und Uhrzeit der Messung16:15:00 Uhr9.30 °C
Temperatur (Minimum / Tiefstwert) und Uhrzeit der Messung00:15:000.10 °C
Errechneter Absolutwert der Temperaturschwankungen zwischen Tmin und Tmax des Tages9.20 K
Errechnete Tagesmitteltemperatur4.32604 °C
Gesamt - Niederschlag des Tages (in flüssiger Form)0.00 Liter / m²
Luftdruck (Maximum / Höchstwert) und Zeitpunkt der Messung01:00:00 Uhr1019.80 hPa
Luftdruck (Minimum / Tiefstwert) und Zeitpunkt der Messung23:30:00 Uhr1016.60 hPa
Errechneter Absolutwert der Luftdruckschwankungen des Tages3.20 hPa
Höchste gemessene Windgeschwindigkeit und Uhrzeit der Messung23:45:00 Uhr0.00 km/h
Errechnete Windhäufigkeit in Relation zu den Messwerten des Tages0.00000 %
Niedrigste Windkühle (Windchill) und Zeitpunkt der Messung00:15:00 Uhr0.10 °C
Taupunkt (Maximum / Höchstwert) und Uhrzeit der Messung12:30:00 Uhr7.40 °C
Taupunkt (Minimum / Tiefstwert) und Uhrzeit der Messung00:00:00-1.00 °C
Anzahl der automatisch eingelesenen Messwerte 96

Detaillierte Wetter- und Klima- Messwerte für den 10.10.2016 in Holzhau im Erzgebirge (630m ü.NN)
ZeitTemperaturLuftdruckRel. LuftfeuchteWindWindrichtungWindchillTaupunktNiederschlag l/m²
23:45:003.40 °C1016.90 hPa92.00 %2.20 °C 
23:30:003.40 °C1016.60 hPa92.00 %2.20 °C 
23:15:003.40 °C1016.80 hPa92.00 %2.20 °C 
23:00:003.50 °C1017.00 hPa92.00 %2.30 °C 
22:45:003.60 °C1017.00 hPa91.00 %2.30 °C 
22:30:003.80 °C1017.00 hPa91.00 %2.50 °C 
22:15:003.80 °C1017.00 hPa92.00 %2.60 °C 
22:00:003.90 °C1017.10 hPa92.00 %2.70 °C 
21:45:004.00 °C1017.30 hPa91.00 %2.70 °C 
21:30:003.90 °C1017.20 hPa91.00 %2.60 °C 
21:15:003.90 °C1017.10 hPa91.00 %2.60 °C 
21:00:003.80 °C1017.20 hPa91.00 %2.50 °C 
20:45:003.80 °C1017.10 hPa90.00 %2.30 °C 
20:30:003.80 °C1017.20 hPa90.00 %2.30 °C 
20:15:003.80 °C1017.20 hPa89.00 %2.20 °C 
20:00:003.90 °C1017.20 hPa90.00 %2.40 °C 
19:45:004.20 °C1017.10 hPa89.00 %2.60 °C 
19:30:004.40 °C1017.00 hPa89.00 %2.80 °C 
19:15:004.50 °C1017.10 hPa88.00 %2.70 °C 
19:00:004.80 °C1017.10 hPa88.00 %3.00 °C 
18:45:005.10 °C1017.10 hPa88.00 %3.30 °C 
18:30:005.30 °C1017.20 hPa87.00 %3.30 °C 
18:15:005.80 °C1017.10 hPa86.00 %3.60 °C 
18:00:006.10 °C1017.20 hPa87.00 %4.10 °C 
17:45:006.40 °C1017.30 hPa86.00 %4.20 °C 
17:30:006.80 °C1017.40 hPa85.00 %4.50 °C 
17:15:007.20 °C1017.50 hPa85.00 %4.90 °C 
17:00:007.50 °C1017.50 hPa84.00 %5.00 °C 
16:45:007.90 °C1017.50 hPa84.00 %5.40 °C 
16:30:008.60 °C1017.50 hPa84.00 %6.10 °C 
16:15:009.30 °C1017.80 hPa86.00 %7.10 °C 
16:00:008.60 °C1017.70 hPa86.00 %6.40 °C 
15:45:008.20 °C1017.80 hPa87.00 %6.20 °C 
15:30:008.20 °C1017.80 hPa88.00 %6.30 °C 
15:15:007.90 °C1017.80 hPa88.00 %6.00 °C 
15:00:007.60 °C1018.10 hPa88.00 %5.70 °C 
14:45:007.80 °C1018.10 hPa89.00 %6.10 °C 
14:30:007.80 °C1018.00 hPa89.00 %6.10 °C 
14:15:007.20 °C1018.30 hPa90.00 %5.70 °C 
14:00:006.50 °C1018.40 hPa89.00 %4.80 °C 
13:45:006.70 °C1018.50 hPa89.00 %5.00 °C 
13:30:007.20 °C1018.60 hPa90.00 %5.70 °C 
13:15:007.50 °C1018.60 hPa90.00 %6.00 °C 
13:00:007.50 °C1018.60 hPa90.00 %6.00 °C 
12:45:007.80 °C1018.80 hPa91.00 %6.40 °C 
12:30:008.60 °C1018.70 hPa92.00 %7.40 °C 
12:15:008.20 °C1018.80 hPa93.00 %7.10 °C 
12:00:007.90 °C1019.00 hPa94.00 %7.00 °C 
11:45:007.60 °C1019.00 hPa94.00 %6.70 °C 
11:30:007.20 °C1019.20 hPa95.00 %6.50 °C 
11:15:007.20 °C1019.10 hPa95.00 %6.50 °C 
11:00:006.90 °C1019.00 hPa96.00 %6.30 °C 
10:45:006.40 °C1019.20 hPa95.00 %5.70 °C 
10:30:005.90 °C1018.90 hPa95.00 %5.20 °C 
10:15:005.60 °C1018.90 hPa96.00 %5.00 °C 
10:00:005.00 °C1019.10 hPa95.00 %4.30 °C 
09:45:004.50 °C1019.20 hPa95.00 %3.80 °C 
09:30:004.40 °C1018.90 hPa96.00 %3.80 °C 
09:15:004.00 °C1018.90 hPa95.00 %3.30 °C 
09:00:003.60 °C1018.90 hPa95.00 %2.90 °C 
08:45:002.90 °C1018.90 hPa95.00 %2.20 °C 
08:30:002.40 °C1018.90 hPa95.00 %1.70 °C 
08:15:002.40 °C1019.00 hPa95.00 %1.70 °C 
08:00:002.50 °C1018.90 hPa95.00 %1.80 °C 
07:45:002.40 °C1018.90 hPa95.00 %1.70 °C 
07:30:002.40 °C1019.00 hPa95.00 %1.70 °C 
07:15:002.40 °C1018.80 hPa95.00 %1.70 °C 
07:00:002.40 °C1018.80 hPa95.00 %1.70 °C 
06:45:002.30 °C1019.00 hPa94.00 %1.40 °C 
06:30:002.30 °C1019.00 hPa94.00 %1.40 °C 
06:15:002.40 °C1019.10 hPa94.00 %1.50 °C 
06:00:002.40 °C1019.00 hPa94.00 %1.50 °C 
05:45:002.30 °C1019.30 hPa94.00 %1.40 °C 
05:30:002.20 °C1019.30 hPa94.00 %1.30 °C 
05:15:002.10 °C1019.30 hPa94.00 %1.20 °C 
05:00:001.90 °C1019.30 hPa94.00 %1.00 °C 
04:45:001.90 °C1019.40 hPa94.00 %1.00 °C 
04:30:001.90 °C1019.30 hPa94.00 %1.00 °C 
04:15:001.90 °C1019.40 hPa94.00 %1.00 °C 
04:00:001.90 °C1019.40 hPa94.00 %1.00 °C 
03:45:001.90 °C1019.50 hPa94.00 %1.00 °C 
03:30:001.80 °C1019.50 hPa94.00 %0.90 °C 
03:15:001.70 °C1019.50 hPa94.00 %0.80 °C 
03:00:001.60 °C1019.50 hPa94.00 %0.70 °C 
02:45:001.30 °C1019.70 hPa94.00 %0.40 °C 
02:30:001.30 °C1019.60 hPa94.00 %0.40 °C 
02:15:001.30 °C1019.60 hPa94.00 %0.40 °C 
02:00:001.30 °C1019.60 hPa94.00 %0.40 °C 
01:45:001.10 °C1019.50 hPa94.00 %0.20 °C 
01:30:000.90 °C1019.60 hPa94.00 %0.00 °C 
01:15:000.90 °C1019.70 hPa93.00 %-0.10 °C 
01:00:000.70 °C1019.80 hPa93.00 %-0.30 °C 
00:45:000.50 °C1019.60 hPa93.00 %-0.50 °C 
00:30:000.40 °C1019.70 hPa93.00 %-0.60 °C 
00:15:000.10 °C1019.70 hPa93.00 %-0.90 °C 
00:00:000.10 °C1019.80 hPa92.00 %-1.00 °C 

Permanenter Link zu dieser Seite: Wetter im Erzgebirge am 10.10.2016
Performance-Info: Die Erstellung der Seite / Statistik(en) / Tabelle(n) erforderte 5 Datenbankserver-Abfrage(n) und dauerte 122 Millisekunden. (Dieser Messwert ist von der Gesamt-Auslastung des Servers abhängig.)
Erzgebirge - Wetter | Erzgebirge - Wetter (Mobilgeräte) | Komplette Klimadatenbank